DETFC EDDB-EDDM
Flight info
| Callsign | DETFC |
|---|---|
| Flight time | N/A |
| Altitude | |
| Route | |
| Aircraft |
Departure
| Time | 2026-05-07 19:03 |
|---|---|
| Airport | Berlin Brandenburg Airport (EDDB) |
Arrival
| Time | N/A |
|---|---|
| Airport | Munich Airport (EDDM) |
| Time | Latitude | Longitude | Altitude | Speed | Heading |
|---|---|---|---|---|---|
| 2026-05-07 18:39 | 52.35999 | 13.50816 | 152 ft | 0 kts | 340° |
| 2026-05-07 18:43 | 52.36001 | 13.50814 | 152 ft | 0 kts | 339° |
| 2026-05-07 18:44 | 52.36007 | 13.50808 | 152 ft | 0 kts | 294° |
| 2026-05-07 18:45 | 52.36008 | 13.50798 | 152 ft | 3 kts | 261° |
| 2026-05-07 18:45 | 52.35993 | 13.50765 | 152 ft | 4 kts | 212° |
| 2026-05-07 18:45 | 52.35990 | 13.50761 | 152 ft | 2 kts | 225° |
| 2026-05-07 18:45 | 52.35969 | 13.50729 | 152 ft | 5 kts | 216° |
| 2026-05-07 18:46 | 52.35949 | 13.50713 | 152 ft | 0 kts | 165° |
| 2026-05-07 18:51 | 52.35944 | 13.50716 | 152 ft | 3 kts | 156° |
| 2026-05-07 18:51 | 52.35928 | 13.50727 | 152 ft | 0 kts | 158° |
| 2026-05-07 18:53 | 52.35915 | 13.50737 | 152 ft | 6 kts | 157° |
| 2026-05-07 18:54 | 52.35858 | 13.50773 | 152 ft | 11 kts | 162° |
| 2026-05-07 18:54 | 52.35796 | 13.50714 | 152 ft | 13 kts | 247° |
| 2026-05-07 18:54 | 52.35762 | 13.50575 | 152 ft | 14 kts | 246° |
| 2026-05-07 18:54 | 52.35728 | 13.50427 | 152 ft | 14 kts | 249° |
| 2026-05-07 18:55 | 52.35690 | 13.50271 | 152 ft | 15 kts | 248° |
| 2026-05-07 18:55 | 52.35649 | 13.50106 | 152 ft | 16 kts | 249° |
| 2026-05-07 18:55 | 52.35607 | 13.49932 | 152 ft | 17 kts | 248° |
| 2026-05-07 18:55 | 52.35566 | 13.49750 | 152 ft | 17 kts | 251° |
| 2026-05-07 18:56 | 52.35522 | 13.49564 | 152 ft | 18 kts | 249° |
| 2026-05-07 18:56 | 52.35478 | 13.49371 | 152 ft | 18 kts | 248° |
| 2026-05-07 18:56 | 52.35434 | 13.49182 | 152 ft | 16 kts | 247° |
| 2026-05-07 18:56 | 52.35415 | 13.49109 | 152 ft | 3 kts | 244° |
| 2026-05-07 18:57 | 52.35399 | 13.49049 | 152 ft | 6 kts | 249° |
| 2026-05-07 18:57 | 52.35377 | 13.48950 | 152 ft | 13 kts | 249° |
| 2026-05-07 18:57 | 52.35342 | 13.48798 | 152 ft | 14 kts | 247° |
| 2026-05-07 18:57 | 52.35301 | 13.48625 | 152 ft | 18 kts | 250° |
| 2026-05-07 18:58 | 52.35233 | 13.48478 | 152 ft | 15 kts | 178° |
| 2026-05-07 18:58 | 52.35149 | 13.48525 | 152 ft | 11 kts | 160° |
| 2026-05-07 18:58 | 52.35106 | 13.48594 | 151 ft | 9 kts | 98° |
| 2026-05-07 18:58 | 52.35101 | 13.48636 | 151 ft | 0 kts | 97° |
| 2026-05-07 19:01 | 52.35099 | 13.48662 | 151 ft | 7 kts | 97° |
| 2026-05-07 19:01 | 52.35089 | 13.48771 | 150 ft | 13 kts | 98° |
| 2026-05-07 19:01 | 52.35080 | 13.48932 | 148 ft | 13 kts | 91° |
| 2026-05-07 19:02 | 52.35085 | 13.49072 | 148 ft | 11 kts | 80° |
| 2026-05-07 19:02 | 52.35162 | 13.49441 | 150 ft | 71 kts | 68° |
| 2026-05-07 19:02 | 52.35403 | 13.50481 | 243 ft | 111 kts | 68° |
| 2026-05-07 19:02 | 52.35496 | 13.51823 | 590 ft | 136 kts | 116° |
| 2026-05-07 19:03 | 52.34746 | 13.52954 | 1164 ft | 168 kts | 155° |
| 2026-05-07 19:03 | 52.33550 | 13.53677 | 1649 ft | 203 kts | 158° |
| 2026-05-07 19:03 | 52.32130 | 13.54444 | 2121 ft | 227 kts | 159° |
| 2026-05-07 19:03 | 52.30653 | 13.55190 | 2184 ft | 203 kts | 161° |
| 2026-05-07 19:04 | 52.29368 | 13.55791 | 2106 ft | 188 kts | 160° |
| 2026-05-07 19:04 | 52.28147 | 13.56383 | 2092 ft | 174 kts | 159° |
| 2026-05-07 19:04 | 52.27019 | 13.56952 | 2094 ft | 165 kts | 158° |
| 2026-05-07 19:04 | 52.25944 | 13.57517 | 2089 ft | 164 kts | 158° |
| 2026-05-07 19:05 | 52.24667 | 13.58249 | 2115 ft | 224 kts | 157° |
| 2026-05-07 19:05 | 52.23081 | 13.59228 | 2117 ft | 259 kts | 156° |
| 2026-05-07 19:05 | 52.21516 | 13.60231 | 2101 ft | 227 kts | 155° |
| 2026-05-07 19:05 | 52.20078 | 13.60865 | 2083 ft | 209 kts | 178° |
| 2026-05-07 19:06 | 52.18616 | 13.60291 | 2093 ft | 230 kts | 196° |
| 2026-05-07 19:06 | 52.15402 | 13.58580 | 2104 ft | 253 kts | 196° |
| 2026-05-07 19:06 | 52.13715 | 13.57691 | 2104 ft | 257 kts | 196° |
| 2026-05-07 19:07 | 52.12039 | 13.56831 | 2106 ft | 247 kts | 195° |
| 2026-05-07 19:07 | 52.10414 | 13.56027 | 2102 ft | 245 kts | 195° |
| 2026-05-07 19:07 | 52.08748 | 13.55235 | 2102 ft | 243 kts | 194° |
| 2026-05-07 19:07 | 52.07127 | 13.54491 | 2105 ft | 243 kts | 194° |
| 2026-05-07 19:08 | 52.05482 | 13.53768 | 2101 ft | 246 kts | 193° |
| 2026-05-07 19:08 | 52.03816 | 13.53070 | 2101 ft | 248 kts | 192° |
| 2026-05-07 19:08 | 52.02134 | 13.52401 | 2097 ft | 250 kts | 192° |
| 2026-05-07 19:08 | 52.00459 | 13.51765 | 2225 ft | 246 kts | 191° |
| 2026-05-07 19:09 | 51.98796 | 13.51160 | 2351 ft | 244 kts | 190° |
| 2026-05-07 19:09 | 51.97145 | 13.50587 | 2486 ft | 242 kts | 190° |
| 2026-05-07 19:09 | 51.95501 | 13.50034 | 2610 ft | 240 kts | 191° |
| 2026-05-07 19:09 | 51.93879 | 13.49242 | 2737 ft | 251 kts | 197° |
| 2026-05-07 19:10 | 51.92205 | 13.48304 | 2876 ft | 258 kts | 198° |
| 2026-05-07 19:10 | 51.90505 | 13.47350 | 3226 ft | 263 kts | 197° |
| 2026-05-07 19:10 | 51.88773 | 13.46383 | 3613 ft | 263 kts | 198° |
| 2026-05-07 19:10 | 51.86978 | 13.45391 | 4685 ft | 212 kts | 198° |
| 2026-05-07 19:11 | 51.85444 | 13.44581 | 4768 ft | 253 kts | 197° |
| 2026-05-07 19:11 | 51.83693 | 13.43690 | 4797 ft | 271 kts | 196° |
| 2026-05-07 19:11 | 51.82553 | 13.43123 | 4803 ft | 245 kts | 196° |
| 2026-05-07 19:11 | 51.81009 | 13.42371 | 4847 ft | 219 kts | 195° |
| 2026-05-07 19:12 | 51.79625 | 13.41715 | 5089 ft | 197 kts | 195° |
| 2026-05-07 19:12 | 51.77780 | 13.40746 | 5421 ft | 222 kts | 198° |
| 2026-05-07 19:12 | 51.76275 | 13.39944 | 5689 ft | 232 kts | 197° |
| 2026-05-07 19:12 | 51.74717 | 13.39122 | 5955 ft | 239 kts | 197° |
| 2026-05-07 19:13 | 51.73644 | 13.38549 | 6135 ft | 241 kts | 197° |
| 2026-05-07 19:13 | 51.72045 | 13.37701 | 6399 ft | 243 kts | 197° |
| 2026-05-07 19:13 | 51.70432 | 13.36838 | 6647 ft | 245 kts | 197° |
| 2026-05-07 19:13 | 51.68813 | 13.35970 | 6893 ft | 246 kts | 197° |
| 2026-05-07 19:14 | 51.67182 | 13.35092 | 7140 ft | 248 kts | 198° |
| 2026-05-07 19:14 | 51.65544 | 13.34218 | 7390 ft | 249 kts | 197° |
| 2026-05-07 19:14 | 51.63897 | 13.33344 | 7642 ft | 249 kts | 197° |
| 2026-05-07 19:14 | 51.62250 | 13.32474 | 7903 ft | 249 kts | 198° |
| 2026-05-07 19:15 | 51.60601 | 13.31615 | 8147 ft | 249 kts | 197° |
| 2026-05-07 19:15 | 51.58948 | 13.30751 | 8406 ft | 249 kts | 197° |
| 2026-05-07 19:15 | 51.57303 | 13.29886 | 8664 ft | 249 kts | 197° |
| 2026-05-07 19:15 | 51.55674 | 13.29033 | 8927 ft | 249 kts | 197° |
| 2026-05-07 19:16 | 51.54028 | 13.28165 | 9188 ft | 249 kts | 198° |
| 2026-05-07 19:16 | 51.52409 | 13.27216 | 9451 ft | 248 kts | 203° |
| 2026-05-07 19:16 | 51.50848 | 13.25973 | 9495 ft | 254 kts | 210° |
| 2026-05-07 19:16 | 51.49375 | 13.24359 | 9497 ft | 258 kts | 216° |
| 2026-05-07 19:17 | 51.47925 | 13.22624 | 9498 ft | 261 kts | 216° |
| 2026-05-07 19:17 | 51.46470 | 13.20870 | 9499 ft | 263 kts | 216° |
| 2026-05-07 19:17 | 51.45006 | 13.19100 | 9500 ft | 264 kts | 216° |
| 2026-05-07 19:17 | 51.43535 | 13.17322 | 9496 ft | 265 kts | 216° |
| 2026-05-07 19:18 | 51.42063 | 13.15539 | 9496 ft | 266 kts | 216° |
| 2026-05-07 19:18 | 51.40587 | 13.13755 | 9504 ft | 266 kts | 216° |
| 2026-05-07 19:18 | 51.39109 | 13.11966 | 9503 ft | 267 kts | 217° |
| 2026-05-07 19:18 | 51.37626 | 13.10176 | 9509 ft | 267 kts | 216° |
| 2026-05-07 19:19 | 51.36144 | 13.08386 | 9509 ft | 267 kts | 216° |
| 2026-05-07 19:19 | 51.34656 | 13.06590 | 9513 ft | 268 kts | 216° |
| 2026-05-07 19:19 | 51.33172 | 13.04798 | 9511 ft | 268 kts | 216° |
| 2026-05-07 19:19 | 51.31686 | 13.03003 | 9508 ft | 268 kts | 217° |
| 2026-05-07 19:20 | 51.30194 | 13.01232 | 9509 ft | 267 kts | 217° |
| 2026-05-07 19:20 | 51.28699 | 12.99478 | 9507 ft | 267 kts | 217° |
| 2026-05-07 19:20 | 51.27202 | 12.97722 | 9501 ft | 267 kts | 216° |
| 2026-05-07 19:20 | 51.25704 | 12.95971 | 9506 ft | 268 kts | 217° |
| 2026-05-07 19:21 | 51.24188 | 12.94244 | 9505 ft | 269 kts | 217° |
| 2026-05-07 19:21 | 51.22659 | 12.92515 | 9505 ft | 269 kts | 217° |
| 2026-05-07 19:21 | 51.21168 | 12.90714 | 9506 ft | 269 kts | 219° |
| 2026-05-07 19:21 | 51.19695 | 12.88874 | 9506 ft | 270 kts | 219° |
| 2026-05-07 19:22 | 51.18216 | 12.87017 | 9503 ft | 273 kts | 219° |
| 2026-05-07 19:22 | 51.16721 | 12.85118 | 9504 ft | 277 kts | 220° |
| 2026-05-07 19:22 | 51.15251 | 12.83110 | 9505 ft | 280 kts | 222° |
| 2026-05-07 19:22 | 51.13781 | 12.81062 | 9504 ft | 282 kts | 222° |
| 2026-05-07 19:23 | 51.12311 | 12.79004 | 9507 ft | 277 kts | 222° |
| 2026-05-07 19:23 | 51.10897 | 12.77032 | 9490 ft | 265 kts | 223° |
| 2026-05-07 19:23 | 51.09527 | 12.75131 | 9488 ft | 261 kts | 222° |
| 2026-05-07 19:23 | 51.08139 | 12.73216 | 9489 ft | 266 kts | 222° |
| 2026-05-07 19:24 | 51.06733 | 12.71276 | 9495 ft | 269 kts | 222° |
| 2026-05-07 19:24 | 51.05316 | 12.69323 | 9496 ft | 271 kts | 222° |
| 2026-05-07 19:24 | 51.03887 | 12.67355 | 9496 ft | 272 kts | 222° |
| 2026-05-07 19:24 | 51.02455 | 12.65384 | 9496 ft | 272 kts | 222° |
| 2026-05-07 19:25 | 51.01024 | 12.63412 | 9497 ft | 272 kts | 222° |
| 2026-05-07 19:25 | 50.99600 | 12.61451 | 9495 ft | 271 kts | 222° |
| 2026-05-07 19:25 | 50.98179 | 12.59494 | 9495 ft | 271 kts | 222° |
| 2026-05-07 19:25 | 50.96754 | 12.57527 | 9497 ft | 271 kts | 222° |
| 2026-05-07 19:26 | 50.95341 | 12.55576 | 9493 ft | 269 kts | 223° |
| 2026-05-07 19:26 | 50.93928 | 12.53630 | 9493 ft | 268 kts | 222° |
| 2026-05-07 19:26 | 50.92515 | 12.51687 | 9490 ft | 270 kts | 222° |
| 2026-05-07 19:26 | 50.91112 | 12.49758 | 9491 ft | 272 kts | 222° |
| 2026-05-07 19:27 | 50.89679 | 12.47792 | 9513 ft | 273 kts | 222° |
| 2026-05-07 19:27 | 50.88246 | 12.45819 | 9512 ft | 273 kts | 223° |
| 2026-05-07 19:27 | 50.86882 | 12.43727 | 9512 ft | 273 kts | 227° |
| 2026-05-07 19:27 | 50.85579 | 12.41542 | 9510 ft | 273 kts | 228° |
| 2026-05-07 19:28 | 50.84286 | 12.39342 | 9509 ft | 273 kts | 228° |
| 2026-05-07 19:28 | 50.83004 | 12.37121 | 9507 ft | 273 kts | 230° |
| 2026-05-07 19:28 | 50.81808 | 12.34791 | 9506 ft | 273 kts | 233° |
| 2026-05-07 19:28 | 50.80638 | 12.32424 | 9505 ft | 273 kts | 233° |
| 2026-05-07 19:29 | 50.79473 | 12.30054 | 9503 ft | 274 kts | 233° |
| 2026-05-07 19:29 | 50.78304 | 12.27677 | 9502 ft | 274 kts | 233° |
| 2026-05-07 19:29 | 50.77137 | 12.25297 | 9500 ft | 274 kts | 234° |
| 2026-05-07 19:29 | 50.75952 | 12.22930 | 9499 ft | 275 kts | 233° |
| 2026-05-07 19:30 | 50.74752 | 12.20568 | 9498 ft | 276 kts | 233° |
| 2026-05-07 19:30 | 50.73548 | 12.18199 | 9494 ft | 277 kts | 233° |
| 2026-05-07 19:30 | 50.72342 | 12.15828 | 9494 ft | 277 kts | 233° |
| 2026-05-07 19:30 | 50.71135 | 12.13456 | 9494 ft | 277 kts | 233° |
| 2026-05-07 19:31 | 50.69927 | 12.11078 | 9489 ft | 278 kts | 233° |
| 2026-05-07 19:31 | 50.68719 | 12.08698 | 9488 ft | 278 kts | 233° |
| 2026-05-07 19:31 | 50.67515 | 12.06327 | 9488 ft | 278 kts | 233° |
| 2026-05-07 19:31 | 50.66307 | 12.03949 | 9483 ft | 278 kts | 233° |
| 2026-05-07 19:32 | 50.65099 | 12.01570 | 9488 ft | 278 kts | 233° |
| 2026-05-07 19:32 | 50.63891 | 11.99193 | 9491 ft | 278 kts | 233° |
| 2026-05-07 19:32 | 50.62684 | 11.96820 | 9493 ft | 277 kts | 233° |
| 2026-05-07 19:32 | 50.61479 | 11.94454 | 9493 ft | 277 kts | 233° |
| 2026-05-07 19:33 | 50.60272 | 11.92085 | 9491 ft | 277 kts | 233° |
| 2026-05-07 19:33 | 50.59068 | 11.89718 | 9491 ft | 277 kts | 233° |
| 2026-05-07 19:33 | 50.57863 | 11.87356 | 9492 ft | 277 kts | 233° |
| 2026-05-07 19:33 | 50.56660 | 11.84997 | 9489 ft | 277 kts | 233° |
| 2026-05-07 19:34 | 50.55463 | 11.82646 | 9490 ft | 276 kts | 233° |
| 2026-05-07 19:34 | 50.54260 | 11.80291 | 9488 ft | 275 kts | 233° |
| 2026-05-07 19:34 | 50.53062 | 11.77941 | 9487 ft | 275 kts | 233° |
| 2026-05-07 19:34 | 50.51868 | 11.75602 | 9487 ft | 274 kts | 233° |
| 2026-05-07 19:35 | 50.50673 | 11.73264 | 9489 ft | 275 kts | 233° |
| 2026-05-07 19:35 | 50.49471 | 11.70917 | 9488 ft | 276 kts | 233° |
| 2026-05-07 19:35 | 50.48268 | 11.68567 | 9488 ft | 276 kts | 233° |
| 2026-05-07 19:35 | 50.47062 | 11.66215 | 9486 ft | 277 kts | 233° |
| 2026-05-07 19:36 | 50.45853 | 11.63858 | 9490 ft | 277 kts | 233° |
| 2026-05-07 19:36 | 50.44643 | 11.61496 | 9487 ft | 278 kts | 233° |
| 2026-05-07 19:36 | 50.43430 | 11.59129 | 9484 ft | 279 kts | 233° |
| 2026-05-07 19:36 | 50.42273 | 11.56705 | 9488 ft | 277 kts | 239° |
| 2026-05-07 19:37 | 50.41317 | 11.54080 | 9487 ft | 276 kts | 243° |
| 2026-05-07 19:37 | 50.40412 | 11.51416 | 9485 ft | 277 kts | 244° |
| 2026-05-07 19:37 | 50.39519 | 11.48759 | 9481 ft | 275 kts | 244° |
| 2026-05-07 19:37 | 50.38630 | 11.46113 | 9482 ft | 274 kts | 244° |
| 2026-05-07 19:38 | 50.37742 | 11.43472 | 9481 ft | 275 kts | 244° |
| 2026-05-07 19:38 | 50.36848 | 11.40818 | 9488 ft | 276 kts | 244° |
| 2026-05-07 19:38 | 50.35951 | 11.38159 | 9488 ft | 276 kts | 244° |
| 2026-05-07 19:38 | 50.35064 | 11.35535 | 9486 ft | 276 kts | 244° |
| 2026-05-07 19:39 | 50.34166 | 11.32879 | 9482 ft | 277 kts | 244° |
| 2026-05-07 19:39 | 50.33268 | 11.30211 | 9485 ft | 277 kts | 244° |
| 2026-05-07 19:39 | 50.32360 | 11.27513 | 9476 ft | 276 kts | 244° |
| 2026-05-07 19:39 | 50.31478 | 11.24881 | 9471 ft | 277 kts | 244° |
| 2026-05-07 19:40 | 50.30580 | 11.22178 | 9473 ft | 276 kts | 244° |
| 2026-05-07 19:40 | 50.29697 | 11.19503 | 9479 ft | 277 kts | 244° |
| 2026-05-07 19:40 | 50.28816 | 11.16826 | 9479 ft | 277 kts | 244° |
| 2026-05-07 19:40 | 50.27932 | 11.14142 | 9476 ft | 278 kts | 244° |
| 2026-05-07 19:41 | 50.27047 | 11.11456 | 9478 ft | 278 kts | 244° |
| 2026-05-07 19:41 | 50.26164 | 11.08772 | 9481 ft | 277 kts | 244° |
| 2026-05-07 19:41 | 50.25295 | 11.06086 | 9478 ft | 276 kts | 244° |
| 2026-05-07 19:41 | 50.24434 | 11.03409 | 9475 ft | 276 kts | 244° |
| 2026-05-07 19:42 | 50.23572 | 11.00734 | 9480 ft | 276 kts | 244° |
| 2026-05-07 19:42 | 50.22707 | 10.98054 | 9481 ft | 276 kts | 244° |
| 2026-05-07 19:42 | 50.21843 | 10.95373 | 9476 ft | 276 kts | 244° |
| 2026-05-07 19:42 | 50.20978 | 10.92695 | 9481 ft | 276 kts | 244° |
| 2026-05-07 19:43 | 50.20115 | 10.90058 | 9480 ft | 276 kts | 243° |
| 2026-05-07 19:43 | 50.19126 | 10.87422 | 9482 ft | 280 kts | 240° |
| 2026-05-07 19:43 | 50.18101 | 10.84826 | 9485 ft | 282 kts | 239° |
| 2026-05-07 19:43 | 50.17066 | 10.82221 | 9479 ft | 284 kts | 239° |
| 2026-05-07 19:44 | 50.16036 | 10.79634 | 9486 ft | 285 kts | 239° |
| 2026-05-07 19:44 | 50.15255 | 10.77701 | 10284 ft | 228 kts | 239° |
| 2026-05-07 19:44 | 50.14358 | 10.75535 | 10477 ft | 245 kts | 238° |
| 2026-05-07 19:44 | 50.13391 | 10.73307 | 10671 ft | 249 kts | 233° |
| 2026-05-07 19:45 | 50.12107 | 10.71494 | 10659 ft | 251 kts | 219° |
| 2026-05-07 19:45 | 50.10747 | 10.69765 | 10601 ft | 254 kts | 222° |
| 2026-05-07 19:45 | 50.09396 | 10.67956 | 10504 ft | 258 kts | 223° |
| 2026-05-07 19:45 | 50.08035 | 10.66126 | 10408 ft | 259 kts | 223° |
| 2026-05-07 19:46 | 50.06672 | 10.64285 | 10319 ft | 260 kts | 223° |
| 2026-05-07 19:46 | 50.05305 | 10.62436 | 10220 ft | 260 kts | 223° |
| 2026-05-07 19:46 | 50.03881 | 10.60503 | 10127 ft | 284 kts | 223° |
| 2026-05-07 19:46 | 50.02391 | 10.58480 | 10037 ft | 275 kts | 223° |
| 2026-05-07 19:47 | 50.00961 | 10.56665 | 9930 ft | 257 kts | 219° |
| 2026-05-07 19:47 | 49.99491 | 10.55185 | 9814 ft | 248 kts | 210° |
| 2026-05-07 19:47 | 49.97951 | 10.54025 | 9701 ft | 246 kts | 207° |
| 2026-05-07 19:47 | 49.96359 | 10.52874 | 9591 ft | 262 kts | 206° |
| 2026-05-07 19:48 | 49.94658 | 10.51645 | 9497 ft | 271 kts | 206° |
| 2026-05-07 19:48 | 49.92921 | 10.50393 | 9395 ft | 277 kts | 207° |
| 2026-05-07 19:48 | 49.91162 | 10.49135 | 9285 ft | 279 kts | 206° |
| 2026-05-07 19:48 | 49.89396 | 10.47861 | 9179 ft | 280 kts | 206° |
| 2026-05-07 19:49 | 49.87631 | 10.46585 | 9074 ft | 281 kts | 207° |
| 2026-05-07 19:49 | 49.85856 | 10.45303 | 8971 ft | 281 kts | 206° |
| 2026-05-07 19:49 | 49.84108 | 10.44045 | 8868 ft | 281 kts | 206° |
| 2026-05-07 19:49 | 49.82333 | 10.42767 | 8764 ft | 281 kts | 206° |
| 2026-05-07 19:50 | 49.80556 | 10.41493 | 8654 ft | 281 kts | 206° |
| 2026-05-07 19:50 | 49.78785 | 10.40220 | 8556 ft | 279 kts | 207° |
| 2026-05-07 19:50 | 49.77029 | 10.38960 | 8454 ft | 278 kts | 206° |
| 2026-05-07 19:50 | 49.75286 | 10.37710 | 8423 ft | 274 kts | 206° |
| 2026-05-07 19:51 | 49.73569 | 10.36483 | 8403 ft | 271 kts | 206° |
| 2026-05-07 19:51 | 49.71862 | 10.35261 | 8369 ft | 269 kts | 206° |
| 2026-05-07 19:51 | 49.70167 | 10.34050 | 8345 ft | 268 kts | 206° |
| 2026-05-07 19:51 | 49.68479 | 10.32844 | 8319 ft | 266 kts | 206° |
| 2026-05-07 19:52 | 49.66802 | 10.31648 | 8291 ft | 265 kts | 206° |
| 2026-05-07 19:52 | 49.65134 | 10.30458 | 8259 ft | 263 kts | 206° |
| 2026-05-07 19:52 | 49.63474 | 10.29274 | 8236 ft | 263 kts | 206° |
| 2026-05-07 19:52 | 49.61810 | 10.28088 | 8206 ft | 264 kts | 206° |
| 2026-05-07 19:53 | 49.60127 | 10.26887 | 8182 ft | 271 kts | 206° |
| 2026-05-07 19:53 | 49.58407 | 10.25658 | 8159 ft | 277 kts | 206° |
| 2026-05-07 19:53 | 49.56665 | 10.24411 | 8139 ft | 276 kts | 206° |
| 2026-05-07 19:53 | 49.54917 | 10.23160 | 8115 ft | 276 kts | 206° |
| 2026-05-07 19:54 | 49.53177 | 10.21916 | 8086 ft | 276 kts | 206° |
| 2026-05-07 19:54 | 49.51442 | 10.20677 | 8052 ft | 275 kts | 207° |
| 2026-05-07 19:54 | 49.49716 | 10.19456 | 8026 ft | 272 kts | 206° |
| 2026-05-07 19:54 | 49.47989 | 10.18239 | 7914 ft | 274 kts | 206° |
| 2026-05-07 19:55 | 49.46271 | 10.17030 | 7742 ft | 267 kts | 206° |
| 2026-05-07 19:55 | 49.44604 | 10.15861 | 7558 ft | 260 kts | 206° |
| 2026-05-07 19:55 | 49.42967 | 10.14713 | 7387 ft | 258 kts | 206° |
| 2026-05-07 19:55 | 49.41340 | 10.13566 | 7211 ft | 257 kts | 207° |
| 2026-05-07 19:56 | 49.39693 | 10.12407 | 7036 ft | 267 kts | 206° |
| 2026-05-07 19:56 | 49.37973 | 10.11193 | 6864 ft | 276 kts | 206° |
| 2026-05-07 19:56 | 49.36570 | 10.10220 | 7521 ft | 225 kts | 206° |
| 2026-05-07 19:56 | 49.35072 | 10.09181 | 7554 ft | 249 kts | 206° |
| 2026-05-07 19:57 | 49.33456 | 10.08055 | 7566 ft | 261 kts | 206° |
| 2026-05-07 19:57 | 49.31791 | 10.06872 | 7537 ft | 267 kts | 207° |
| 2026-05-07 19:57 | 49.30099 | 10.05649 | 7137 ft | 267 kts | 207° |
| 2026-05-07 19:57 | 49.28454 | 10.04461 | 6645 ft | 261 kts | 207° |
| 2026-05-07 19:58 | 49.26780 | 10.03247 | 6136 ft | 264 kts | 207° |
| 2026-05-07 19:58 | 49.25135 | 10.02051 | 5618 ft | 260 kts | 207° |
| 2026-05-07 19:58 | 49.23507 | 10.00857 | 5109 ft | 260 kts | 207° |
| 2026-05-07 19:58 | 49.21878 | 9.99652 | 4596 ft | 260 kts | 207° |
| 2026-05-07 19:59 | 49.20249 | 9.98433 | 4076 ft | 261 kts | 207° |
| 2026-05-07 19:59 | 49.18637 | 9.97211 | 3866 ft | 251 kts | 207° |
| 2026-05-07 19:59 | 49.17111 | 9.96050 | 3990 ft | 247 kts | 207° |
| 2026-05-07 19:59 | 49.15525 | 9.94844 | 4019 ft | 255 kts | 207° |
| 2026-05-07 20:00 | 49.13939 | 9.93632 | 3992 ft | 255 kts | 207° |
| 2026-05-07 20:00 | 49.12370 | 9.92378 | 3992 ft | 254 kts | 211° |
| 2026-05-07 20:00 | 49.10879 | 9.90939 | 3991 ft | 254 kts | 214° |
| 2026-05-07 20:00 | 49.09403 | 9.89464 | 3993 ft | 253 kts | 214° |
| 2026-05-07 20:01 | 49.08002 | 9.87874 | 3985 ft | 250 kts | 228° |
| 2026-05-07 20:01 | 49.07092 | 9.85634 | 3992 ft | 249 kts | 244° |
| 2026-05-07 20:01 | 49.06333 | 9.83257 | 3995 ft | 250 kts | 245° |
| 2026-05-07 20:01 | 49.05546 | 9.80893 | 3995 ft | 251 kts | 243° |
| 2026-05-07 20:02 | 49.04700 | 9.78505 | 3996 ft | 261 kts | 242° |
| 2026-05-07 20:02 | 49.03835 | 9.76085 | 4000 ft | 251 kts | 242° |
| 2026-05-07 20:02 | 49.03023 | 9.73816 | 3995 ft | 239 kts | 242° |
| 2026-05-07 20:02 | 49.02238 | 9.71626 | 3992 ft | 234 kts | 242° |
| 2026-05-07 20:03 | 49.01777 | 9.70340 | 3990 ft | 238 kts | 242° |
| 2026-05-07 20:04 | 49.01137 | 9.68551 | 3992 ft | 242 kts | 242° |
| 2026-05-07 20:04 | 49.00321 | 9.66265 | 3991 ft | 243 kts | 242° |
| 2026-05-07 20:04 | 48.99511 | 9.63998 | 3992 ft | 244 kts | 242° |
| 2026-05-07 20:04 | 48.98703 | 9.61732 | 3853 ft | 249 kts | 242° |
| 2026-05-07 20:05 | 48.97874 | 9.59402 | 3697 ft | 251 kts | 242° |
| 2026-05-07 20:05 | 48.97040 | 9.57052 | 3547 ft | 253 kts | 242° |
| 2026-05-07 20:05 | 48.96204 | 9.54689 | 3404 ft | 254 kts | 242° |
| 2026-05-07 20:05 | 48.95370 | 9.52327 | 3244 ft | 254 kts | 242° |
| 2026-05-07 20:06 | 48.94535 | 9.49955 | 3085 ft | 254 kts | 242° |
| 2026-05-07 20:06 | 48.93649 | 9.47640 | 2995 ft | 252 kts | 238° |
| 2026-05-07 20:06 | 48.92695 | 9.45432 | 2993 ft | 249 kts | 235° |
| 2026-05-07 20:06 | 48.91670 | 9.43320 | 2988 ft | 247 kts | 233° |
| 2026-05-07 20:07 | 48.90584 | 9.41299 | 2979 ft | 247 kts | 230° |
| 2026-05-07 20:07 | 48.89823 | 9.39967 | 2984 ft | 247 kts | 229° |
| 2026-05-07 20:07 | 48.88695 | 9.38009 | 2982 ft | 247 kts | 229° |
| 2026-05-07 20:07 | 48.87573 | 9.36064 | 2996 ft | 230 kts | 229° |
| 2026-05-07 20:08 | 48.86612 | 9.34404 | 2986 ft | 200 kts | 229° |
| 2026-05-07 20:08 | 48.85716 | 9.32854 | 2988 ft | 192 kts | 229° |
| 2026-05-07 20:08 | 48.84812 | 9.31292 | 2995 ft | 213 kts | 229° |
| 2026-05-07 20:08 | 48.83834 | 9.29601 | 3006 ft | 219 kts | 229° |
| 2026-05-07 20:09 | 48.82819 | 9.27848 | 3003 ft | 223 kts | 229° |
| 2026-05-07 20:09 | 48.81792 | 9.26075 | 3006 ft | 225 kts | 229° |
| 2026-05-07 20:09 | 48.80755 | 9.24286 | 3007 ft | 226 kts | 229° |
| 2026-05-07 20:10 | 48.78551 | 9.20903 | 3008 ft | 224 kts | 220° |
| 2026-05-07 20:10 | 48.77332 | 9.19888 | 2996 ft | 178 kts | 202° |
| 2026-05-07 20:10 | 48.76276 | 9.19251 | 2990 ft | 150 kts | 202° |
| 2026-05-07 20:10 | 48.75370 | 9.18713 | 2997 ft | 129 kts | 193° |
| 2026-05-07 20:11 | 48.74594 | 9.19085 | 3006 ft | 109 kts | 133° |
| 2026-05-07 20:11 | 48.74834 | 9.20133 | 2748 ft | 129 kts | 29° |
| 2026-05-07 20:11 | 48.75739 | 9.20492 | 2689 ft | 138 kts | 2° |
| 2026-05-07 20:11 | 48.76784 | 9.20172 | 2690 ft | 176 kts | 343° |
| 2026-05-07 20:12 | 48.77910 | 9.19414 | 3054 ft | 181 kts | 311° |
| 2026-05-07 20:12 | 48.77972 | 9.17630 | 3648 ft | 179 kts | 241° |
| 2026-05-07 20:12 | 48.76879 | 9.16628 | 3649 ft | 208 kts | 185° |
| 2026-05-07 20:12 | 48.75523 | 9.17020 | 4376 ft | 182 kts | 169° |
| 2026-05-07 20:13 | 48.74367 | 9.17319 | 5026 ft | 157 kts | 156° |
| 2026-05-07 20:13 | 48.73694 | 9.18507 | 4759 ft | 151 kts | 120° |
| 2026-05-07 20:13 | 48.73152 | 9.19950 | 4179 ft | 165 kts | 117° |
| 2026-05-07 20:13 | 48.72756 | 9.21579 | 3807 ft | 160 kts | 101° |
| 2026-05-07 20:14 | 48.72698 | 9.23204 | 3504 ft | 153 kts | 87° |
| 2026-05-07 20:14 | 48.72876 | 9.24764 | 3199 ft | 150 kts | 75° |
| 2026-05-07 20:14 | 48.73137 | 9.26275 | 2958 ft | 144 kts | 75° |
| 2026-05-07 20:14 | 48.73359 | 9.27730 | 2727 ft | 136 kts | 79° |
| 2026-05-07 20:15 | 48.73480 | 9.29070 | 2633 ft | 120 kts | 92° |
| 2026-05-07 20:15 | 48.73130 | 9.30135 | 2503 ft | 115 kts | 135° |
| 2026-05-07 20:15 | 48.72485 | 9.30769 | 2348 ft | 113 kts | 150° |
| 2026-05-07 20:15 | 48.71781 | 9.31284 | 2235 ft | 108 kts | 157° |
| 2026-05-07 20:16 | 48.71097 | 9.31473 | 2234 ft | 95 kts | 201° |
| 2026-05-07 20:16 | 48.70614 | 9.30796 | 2064 ft | 100 kts | 232° |
| 2026-05-07 20:16 | 48.70302 | 9.29864 | 1920 ft | 98 kts | 255° |
| 2026-05-07 20:16 | 48.70167 | 9.28942 | 1790 ft | 88 kts | 262° |
| 2026-05-07 20:17 | 48.70053 | 9.28048 | 1714 ft | 85 kts | 259° |
| 2026-05-07 20:17 | 48.69897 | 9.27149 | 1613 ft | 93 kts | 258° |
| 2026-05-07 20:17 | 48.69737 | 9.26153 | 1585 ft | 99 kts | 252° |
| 2026-05-07 20:17 | 48.69524 | 9.25093 | 1435 ft | 109 kts | 257° |
| 2026-05-07 20:18 | 48.69356 | 9.24152 | 1291 ft | 79 kts | 256° |
| 2026-05-07 20:18 | 48.69222 | 9.23504 | 1279 ft | 50 kts | 253° |
| 2026-05-07 20:18 | 48.69143 | 9.23059 | 1279 ft | 37 kts | 248° |
| 2026-05-07 20:18 | 48.69133 | 9.22934 | 1279 ft | 23 kts | 324° |
| 2026-05-07 20:19 | 48.69257 | 9.23081 | 1279 ft | 25 kts | 45° |
| 2026-05-07 20:19 | 48.69371 | 9.23144 | 1279 ft | 17 kts | 324° |
| 2026-05-07 20:19 | 48.69405 | 9.23100 | 1279 ft | 15 kts | 295° |
| 2026-05-07 20:19 | 48.69402 | 9.23009 | 1279 ft | 14 kts | 254° |
| 2026-05-07 20:20 | 48.69374 | 9.22878 | 1279 ft | 13 kts | 250° |
| 2026-05-07 20:20 | 48.69331 | 9.22639 | 1279 ft | 30 kts | 253° |
| 2026-05-07 20:20 | 48.69263 | 9.22291 | 1279 ft | 50 kts | 252° |
| 2026-05-07 20:20 | 48.69173 | 9.21790 | 1279 ft | 58 kts | 263° |
| 2026-05-07 20:21 | 48.69063 | 9.21204 | 1279 ft | 59 kts | 255° |
| 2026-05-07 20:21 | 48.68950 | 9.20624 | 1279 ft | 55 kts | 253° |
| 2026-05-07 20:21 | 48.68830 | 9.20028 | 1279 ft | 54 kts | 252° |
| 2026-05-07 20:21 | 48.68781 | 9.19782 | 1279 ft | 22 kts | 261° |
| 2026-05-07 20:22 | 48.68795 | 9.19703 | 1279 ft | 15 kts | 308° |
| 2026-05-07 20:22 | 48.68911 | 9.19530 | 1279 ft | 12 kts | 307° |
| 2026-05-07 20:22 | 48.68913 | 9.19525 | 1279 ft | 0 kts | 307° |